createdAt,value
2018-08-27T00:01:17.584Z,13.80
2018-08-27T00:05:20.871Z,13.90
2018-08-27T00:09:23.960Z,13.90
2018-08-27T00:17:30.081Z,13.70
2018-08-27T00:21:33.336Z,13.80
2018-08-27T00:25:36.436Z,13.80
2018-08-27T00:29:39.674Z,13.70
2018-08-27T00:33:42.929Z,13.70
2018-08-27T00:37:46.077Z,13.80
2018-08-27T00:41:49.148Z,13.80
2018-08-27T00:45:53.228Z,13.70
2018-08-27T00:49:56.312Z,13.70
2018-08-27T00:53:59.844Z,13.70
2018-08-27T00:58:02.920Z,13.70
2018-08-27T01:06:08.934Z,13.70
2018-08-27T01:10:12.152Z,13.70
2018-08-27T01:14:15.233Z,13.70
2018-08-27T01:18:18.456Z,13.70
2018-08-27T01:22:21.761Z,13.70
2018-08-27T01:26:24.876Z,13.70
2018-08-27T01:30:27.955Z,13.60
2018-08-27T01:34:31.436Z,13.60
2018-08-27T01:38:34.537Z,13.70
2018-08-27T01:42:37.775Z,13.70
2018-08-27T01:46:40.869Z,13.70
2018-08-27T01:50:44.311Z,13.70
2018-08-27T01:54:47.427Z,13.80
2018-08-27T01:58:51.556Z,13.80
2018-08-27T02:02:54.592Z,13.80
2018-08-27T02:06:57.828Z,13.80
2018-08-27T02:11:00.924Z,13.80
2018-08-27T02:15:04.092Z,13.90
2018-08-27T02:19:07.184Z,13.90
2018-08-27T02:23:10.839Z,13.90
2018-08-27T02:27:13.932Z,13.90
2018-08-27T02:31:17.227Z,13.90
2018-08-27T02:35:20.318Z,14.00
2018-08-27T02:39:23.861Z,14.10
2018-08-27T02:43:26.996Z,14.10
2018-08-27T02:47:30.236Z,14.10
2018-08-27T02:51:33.329Z,14.10
2018-08-27T02:55:36.565Z,14.20
2018-08-27T02:59:39.648Z,14.20
2018-08-27T03:03:42.801Z,14.20
2018-08-27T03:07:46.054Z,14.20
2018-08-27T03:11:49.236Z,14.20
2018-08-27T03:15:52.321Z,14.20
2018-08-27T03:19:55.845Z,14.20
2018-08-27T03:23:59.068Z,14.30
2018-08-27T03:28:02.192Z,14.30
2018-08-27T03:32:05.314Z,14.30
2018-08-27T03:36:08.454Z,14.30
2018-08-27T03:40:11.532Z,14.40
2018-08-27T03:44:14.702Z,14.40
2018-08-27T03:48:17.797Z,14.40
2018-08-27T03:52:21.165Z,14.50
2018-08-27T03:56:24.252Z,14.50
2018-08-27T04:00:27.477Z,14.50
2018-08-27T04:04:30.577Z,14.50
2018-08-27T04:08:33.695Z,14.50
2018-08-27T04:12:36.801Z,14.60
2018-08-27T04:16:40.006Z,14.70
2018-08-27T04:20:43.107Z,14.70
2018-08-27T04:24:46.445Z,14.70
2018-08-27T04:28:49.657Z,14.70
2018-08-27T04:32:52.789Z,14.70
2018-08-27T04:36:55.892Z,14.70
2018-08-27T04:40:59.157Z,14.80
2018-08-27T04:45:02.263Z,14.90
2018-08-27T04:49:05.420Z,14.90
2018-08-27T04:53:08.644Z,15.00
2018-08-27T04:57:11.949Z,15.10
2018-08-27T05:01:15.060Z,15.10
2018-08-27T05:05:18.517Z,15.10
2018-08-27T05:09:21.626Z,15.20
2018-08-27T05:13:24.826Z,15.20
2018-08-27T05:17:27.929Z,15.30
2018-08-27T05:21:31.161Z,15.40
2018-08-27T05:25:34.263Z,15.50
2018-08-27T05:29:37.513Z,16.20
2018-08-27T05:33:40.608Z,15.60
2018-08-27T05:37:43.832Z,15.70
2018-08-27T05:41:46.971Z,15.70
2018-08-27T05:45:50.133Z,15.70
2018-08-27T05:49:53.230Z,15.90
2018-08-27T05:53:56.371Z,15.90
2018-08-27T05:57:59.480Z,16.00
2018-08-27T06:02:02.862Z,16.00
2018-08-27T06:06:05.992Z,16.20
2018-08-27T06:10:09.311Z,16.20
2018-08-27T06:14:12.412Z,16.40
2018-08-27T06:18:15.556Z,16.40
2018-08-27T06:22:18.775Z,16.50
2018-08-27T06:26:21.861Z,16.80
2018-08-27T06:30:24.948Z,16.90
2018-08-27T06:38:30.983Z,17.00
2018-08-27T06:42:34.129Z,17.20
2018-08-27T06:46:37.241Z,17.20
2018-08-27T06:50:40.736Z,17.30
2018-08-27T06:54:43.861Z,17.30
2018-08-27T06:58:47.017Z,17.50
2018-08-27T07:06:53.219Z,17.70
2018-08-27T07:10:56.367Z,17.60
2018-08-27T07:14:59.500Z,17.90
2018-08-27T07:19:02.606Z,17.90
2018-08-27T07:23:05.837Z,18.00
2018-08-27T07:27:08.941Z,18.00
2018-08-27T07:35:15.056Z,18.30
2018-08-27T07:39:18.205Z,18.40
2018-08-27T07:43:21.301Z,18.60
2018-08-27T07:47:24.435Z,18.50
2018-08-27T07:51:27.582Z,18.60
2018-08-27T07:55:30.708Z,18.50
2018-08-27T07:59:34.155Z,18.50
2018-08-27T08:03:37.384Z,18.50
2018-08-27T08:07:40.589Z,18.60
2018-08-27T08:11:43.941Z,18.60
2018-08-27T08:15:47.084Z,19.00
2018-08-27T08:19:50.210Z,19.00
2018-08-27T08:23:53.304Z,19.30
2018-08-27T08:27:56.428Z,19.30
2018-08-27T08:31:59.520Z,19.20
2018-08-27T08:36:02.655Z,19.10
2018-08-27T08:44:08.673Z,18.90
2018-08-27T08:48:11.776Z,18.80
2018-08-27T08:52:14.988Z,18.80
2018-08-27T08:56:18.105Z,18.90
2018-08-27T09:00:21.244Z,18.80
2018-08-27T09:04:24.389Z,18.80
2018-08-27T09:08:27.707Z,18.80
2018-08-27T09:12:30.800Z,18.70
2018-08-27T09:16:34.562Z,18.50
2018-08-27T09:20:37.660Z,18.50
2018-08-27T09:24:41.087Z,18.20
2018-08-27T09:28:44.176Z,18.10
2018-08-27T09:32:47.536Z,18.20
2018-08-27T09:36:50.651Z,18.20
2018-08-27T09:40:53.795Z,18.10
2018-08-27T09:48:59.959Z,18.10
2018-08-27T09:53:03.154Z,18.20
2018-08-27T09:57:06.384Z,18.30
2018-08-27T10:01:14.964Z,18.70
2018-08-27T10:05:18.203Z,18.70
2018-08-27T10:09:21.485Z,19.00
2018-08-27T10:13:24.713Z,19.50
2018-08-27T10:17:27.828Z,19.50
2018-08-27T10:21:31.055Z,19.80
2018-08-27T10:25:34.184Z,19.90
2018-08-27T10:29:37.397Z,19.80
2018-08-27T10:33:40.488Z,19.50
2018-08-27T10:37:43.616Z,19.00
2018-08-27T10:41:46.717Z,18.80
2018-08-27T10:45:49.904Z,18.80
2018-08-27T10:49:53.146Z,19.00
2018-08-27T10:53:56.348Z,19.10
2018-08-27T10:57:59.429Z,19.10
2018-08-27T11:02:02.736Z,19.20
2018-08-27T11:06:05.826Z,19.10
2018-08-27T11:10:09.296Z,18.90
2018-08-27T11:14:12.396Z,19.00
2018-08-27T11:18:15.544Z,19.10
2018-08-27T11:22:18.665Z,19.10
2018-08-27T11:26:21.979Z,19.20
2018-08-27T11:30:25.001Z,19.30
2018-08-27T11:34:28.237Z,19.50
2018-08-27T11:38:31.329Z,19.30
2018-08-27T11:42:34.464Z,19.30
2018-08-27T11:46:37.628Z,19.20
2018-08-27T11:50:40.884Z,18.80
2018-08-27T11:54:43.847Z,18.80
2018-08-27T12:02:56.702Z,18.50
2018-08-27T12:06:59.917Z,18.20
2018-08-27T12:11:03.421Z,18.30
2018-08-27T12:15:06.920Z,18.80
2018-08-27T12:19:10.081Z,18.80
2018-08-27T12:23:13.313Z,19.10
2018-08-27T12:27:16.415Z,19.30
2018-08-27T12:31:19.645Z,19.30
2018-08-27T12:35:22.743Z,18.80
2018-08-27T12:39:25.868Z,18.50
2018-08-27T12:43:28.996Z,18.50
2018-08-27T12:47:32.206Z,18.50
2018-08-27T12:51:35.288Z,18.50
2018-08-27T12:55:38.420Z,18.60
2018-08-27T12:59:42.055Z,18.60
2018-08-27T13:03:45.285Z,18.20
2018-08-27T13:07:48.431Z,18.30
2018-08-27T13:11:51.704Z,18.20
2018-08-27T13:15:54.791Z,18.60
2018-08-27T13:19:57.909Z,18.80
2018-08-27T13:24:00.998Z,18.70
2018-08-27T13:28:04.181Z,18.50
2018-08-27T13:32:07.260Z,18.30
2018-08-27T13:36:10.451Z,18.30
2018-08-27T13:40:13.583Z,18.20
2018-08-27T13:44:16.717Z,18.20
2018-08-27T13:48:19.786Z,18.30
2018-08-27T13:52:23.320Z,17.90
2018-08-27T13:56:26.469Z,17.90
2018-08-27T14:00:29.776Z,17.60
2018-08-27T14:04:32.776Z,17.40
2018-08-27T14:08:35.964Z,17.40
2018-08-27T14:12:39.284Z,17.40
2018-08-27T14:16:42.341Z,17.60
2018-08-27T14:20:45.483Z,17.70
2018-08-27T14:24:48.641Z,18.10
2018-08-27T14:28:51.792Z,17.80
2018-08-27T14:32:54.994Z,17.80
2018-08-27T14:36:57.996Z,17.80
2018-08-27T14:41:01.179Z,17.70
2018-08-27T14:45:04.372Z,17.60
2018-08-27T14:49:07.448Z,17.60
2018-08-27T14:53:10.536Z,17.70
2018-08-27T14:57:13.644Z,17.80
2018-08-27T15:01:19.700Z,17.80
2018-08-27T15:05:22.829Z,17.90
2018-08-27T15:09:26.005Z,18.20
2018-08-27T15:13:29.260Z,18.20
2018-08-27T15:17:32.359Z,18.20
2018-08-27T15:21:35.559Z,18.40
2018-08-27T15:25:38.980Z,18.40
2018-08-27T15:29:42.112Z,18.30
2018-08-27T15:33:45.208Z,18.30
2018-08-27T15:37:48.348Z,18.20
2018-08-27T15:41:51.442Z,18.10
2018-08-27T15:45:59.973Z,18.10
2018-08-27T15:50:03.105Z,18.10
2018-08-27T15:54:06.548Z,18.10
2018-08-27T15:58:09.703Z,18.00
2018-08-27T16:02:12.840Z,18.00
2018-08-27T16:06:15.940Z,18.00
2018-08-27T16:10:19.462Z,18.00
2018-08-27T16:14:22.648Z,18.10
2018-08-27T16:18:26.168Z,18.00
2018-08-27T16:22:29.252Z,18.00
2018-08-27T16:26:32.500Z,17.90
2018-08-27T16:30:35.589Z,17.90
2018-08-27T16:34:38.879Z,17.90
2018-08-27T16:38:41.952Z,17.90
2018-08-27T16:42:45.089Z,17.80
2018-08-27T16:46:48.168Z,17.70
2018-08-27T16:50:51.780Z,17.60
2018-08-27T16:54:54.876Z,17.60
2018-08-27T16:58:58.047Z,17.50
2018-08-27T17:03:01.169Z,17.50
2018-08-27T17:07:04.752Z,17.40
2018-08-27T17:11:07.828Z,17.40
2018-08-27T17:15:11.100Z,17.40
2018-08-27T17:19:14.213Z,17.40
2018-08-27T17:23:17.366Z,17.30
2018-08-27T17:27:20.493Z,17.40
2018-08-27T17:31:23.801Z,17.40
2018-08-27T17:35:26.885Z,17.40
2018-08-27T17:39:30.352Z,17.30
2018-08-27T17:43:33.368Z,17.30
2018-08-27T17:47:36.722Z,17.30
2018-08-27T17:51:39.831Z,17.40
2018-08-27T17:59:46.000Z,17.30
2018-08-27T18:03:49.134Z,17.30
2018-08-27T18:07:52.245Z,17.30
2018-08-27T18:11:55.364Z,17.20
2018-08-27T18:15:58.808Z,17.20
2018-08-27T18:20:01.949Z,17.20
2018-08-27T18:24:05.024Z,17.20
2018-08-27T18:28:08.782Z,17.20
2018-08-27T18:32:11.993Z,17.20
2018-08-27T18:36:15.140Z,17.30
2018-08-27T18:40:18.826Z,17.20
2018-08-27T18:44:21.989Z,17.30
2018-08-27T18:48:25.169Z,17.30
2018-08-27T18:52:28.360Z,17.30
2018-08-27T18:56:32.000Z,17.10
2018-08-27T19:00:35.335Z,17.10
2018-08-27T19:04:39.016Z,16.90
2018-08-27T19:08:42.205Z,16.90
2018-08-27T19:12:45.319Z,16.90
2018-08-27T19:20:51.435Z,16.70
2018-08-27T19:24:54.656Z,16.80
2018-08-27T19:28:57.881Z,16.70
2018-08-27T19:33:01.096Z,16.70
2018-08-27T19:41:07.289Z,16.70
2018-08-27T19:49:13.386Z,16.50
2018-08-27T19:53:16.601Z,16.50
2018-08-27T19:57:19.786Z,16.50
2018-08-27T20:01:22.881Z,16.60
2018-08-27T20:05:26.112Z,16.50
2018-08-27T20:09:29.304Z,16.60
2018-08-27T20:13:32.438Z,16.60
2018-08-27T20:17:35.517Z,16.70
2018-08-27T20:21:38.793Z,16.60
2018-08-27T20:25:41.965Z,16.70
2018-08-27T20:29:45.051Z,16.60
2018-08-27T20:33:48.281Z,16.60
2018-08-27T20:37:51.540Z,16.60
2018-08-27T20:41:54.628Z,16.60
2018-08-27T20:45:57.892Z,16.60
2018-08-27T20:50:00.990Z,16.50
2018-08-27T20:54:04.128Z,16.50
2018-08-27T20:58:07.204Z,16.40
2018-08-27T21:02:10.429Z,16.50
2018-08-27T21:06:13.507Z,16.50
2018-08-27T21:10:16.729Z,16.50
2018-08-27T21:15:02.740Z,16.40
2018-08-27T21:19:05.905Z,16.50
2018-08-27T21:23:08.984Z,16.50
2018-08-27T21:27:18.716Z,16.40
2018-08-27T21:35:25.470Z,16.40
2018-08-27T21:39:28.545Z,16.30
2018-08-27T21:43:31.668Z,16.40
2018-08-27T21:47:34.756Z,16.50
2018-08-27T21:51:37.980Z,16.50
2018-08-27T21:55:41.082Z,16.70
2018-08-27T21:59:44.232Z,16.70
2018-08-27T22:03:52.643Z,16.80
2018-08-27T22:07:55.894Z,16.70
2018-08-27T22:11:58.980Z,16.80
2018-08-27T22:16:02.208Z,16.80
2018-08-27T22:24:08.882Z,16.90
2018-08-27T22:28:11.996Z,16.80
2018-08-27T22:32:15.109Z,16.80
2018-08-27T22:36:18.312Z,16.80
2018-08-27T22:40:21.428Z,16.80
2018-08-27T22:44:24.540Z,16.90
2018-08-27T22:48:27.678Z,16.80
2018-08-27T23:00:36.552Z,16.80
2018-08-27T23:04:45.129Z,16.80
2018-08-27T23:08:48.200Z,16.80
2018-08-27T23:12:51.671Z,16.70
2018-08-27T23:16:54.756Z,16.80
2018-08-27T23:20:57.887Z,16.80
2018-08-27T23:25:00.987Z,16.80
2018-08-27T23:29:04.253Z,16.80
2018-08-27T23:33:07.344Z,16.80
2018-08-27T23:37:10.776Z,16.70
2018-08-27T23:41:13.879Z,16.60
2018-08-27T23:45:17.021Z,16.70
2018-08-27T23:49:20.097Z,16.70
2018-08-27T23:53:23.305Z,16.70
2018-08-27T23:57:26.444Z,16.60
